Time;durP1;ratioP1;P1;durP2;ratioP2;P2;SDS_P1;SDS_P2;PMS_P1;PMS_P2;Temp;Humidity;BMP_temperature;BMP_pressure;BME280_temperature;BME280_humidity;BME280_pressure;Samples;Min_cycle;Max_cycle;Signal;HPM_P1;HPM_P2
2024/03/12 00:02:25;;;;;;;;;;;;;;;16.32;46.56;100689.38;4961335;29;1006;-43
2024/03/12 00:04:50;;;;;;;;;;;;;;;17.01;46.93;100686.06;4956430;29;1108;-42
2024/03/12 00:07:21;;;;;;;;;;;;;;;16.64;47.84;100679.03;4960167;29;1060;-45
2024/03/12 00:09:47;;;;;;;;;;;;;;;18.71;43.70;100663.06;4961205;29;1982;-44
2024/03/12 00:12:13;;;;;;;;;;;;;;;17.29;46.12;100656.53;4961197;29;1065;-40
2024/03/12 00:14:42;;;;;;;;;;;;;;;16.60;47.02;100647.53;4959855;29;1108;-42
2024/03/12 00:17:08;;;;;;;;;;;;;;;17.86;45.83;100650.34;4949848;29;1073;-44
2024/03/12 00:19:33;;;;;;;;;;;;;;;16.99;46.75;100641.94;4949543;29;1077;-41
2024/03/12 00:22:00;;;;;;;;;;;;;;;16.59;46.79;100638.69;4961003;29;1182;-45
2024/03/12 00:24:25;;;;;;;;;;;;;;;18.13;45.06;100627.84;4961061;29;2418;-44
2024/03/12 00:26:52;;;;;;;;;;;;;;;16.88;46.67;100625.00;4961224;29;1053;-42
2024/03/12 00:29:19;;;;;;;;;;;;;;;16.84;47.70;100633.34;4957997;29;1899;-40
2024/03/12 00:31:45;;;;;;;;;;;;;;;17.51;46.09;100633.56;4961037;29;1037;-47
2024/03/12 00:34:11;;;;;;;;;;;;;;;16.61;46.93;100633.28;4960961;29;1103;-42
2024/03/12 00:36:36;;;;;;;;;;;;;;;17.00;47.49;100630.34;4960915;28;1197;-44
2024/03/12 00:39:02;;;;;;;;;;;;;;;17.17;46.45;100629.06;4960596;29;994;-41
2024/03/12 00:41:28;;;;;;;;;;;;;;;16.54;46.91;100624.91;4955201;29;1050;-42
2024/03/12 00:43:54;;;;;;;;;;;;;;;18.06;45.19;100619.47;4956965;28;1058;-44
2024/03/12 00:46:21;;;;;;;;;;;;;;;16.89;46.60;100616.09;4960606;29;1081;-42
2024/03/12 00:48:46;;;;;;;;;;;;;;;18.70;43.68;100618.75;4960354;29;1970;-45
2024/03/12 00:51:12;;;;;;;;;;;;;;;16.08;49.04;100624.69;4960526;28;1100;-42
2024/03/12 00:53:38;;;;;;;;;;;;;;;17.61;46.70;100618.59;4959895;29;2508;-42
2024/03/12 00:56:03;;;;;;;;;;;;;;;19.20;42.37;100612.75;4952568;29;1030;-44
2024/03/12 00:58:29;;;;;;;;;;;;;;;15.41;51.73;100622.28;4955189;29;1519;-43
2024/03/12 01:00:55;;;;;;;;;;;;;;;18.60;44.05;100611.53;4960430;29;1038;-43
2024/03/12 01:03:20;;;;;;;;;;;;;;;16.69;47.18;100590.19;4957140;29;1101;-43
2024/03/12 01:05:46;;;;;;;;;;;;;;;17.25;47.36;100597.44;4953823;29;1205;-45
2024/03/12 01:08:11;;;;;;;;;;;;;;;19.27;42.27;100597.06;4954033;29;1914;-47
2024/03/12 01:10:37;;;;;;;;;;;;;;;15.30;50.98;100582.41;4948947;29;1101;-43
2024/03/12 01:13:05;;;;;;;;;;;;;;;18.47;44.47;100569.09;4960386;29;1074;-42
2024/03/12 01:15:31;;;;;;;;;;;;;;;17.37;45.81;100538.94;4960290;29;1041;-43
2024/03/12 01:17:57;;;;;;;;;;;;;;;16.91;48.41;100535.41;4960263;28;998;-43
2024/03/12 01:20:24;;;;;;;;;;;;;;;19.17;42.55;100530.34;4960164;29;1078;-43
2024/03/12 01:22:50;;;;;;;;;;;;;;;15.37;50.15;100527.19;4959498;29;1018;-44
2024/03/12 01:25:15;;;;;;;;;;;;;;;18.32;44.80;100531.28;4958676;29;2311;-45
2024/03/12 01:27:44;;;;;;;;;;;;;;;18.28;43.68;100521.03;4959775;29;1105;-46
2024/03/12 01:30:16;;;;;;;;;;;;;;;16.52;49.51;100520.63;4959665;29;1906;-42
2024/03/12 01:32:42;;;;;;;;;;;;;;;19.20;42.53;100537.25;4960097;29;1100;-41
2024/03/12 01:35:08;;;;;;;;;;;;;;;15.78;49.50;100535.75;4960141;29;1124;-42
2024/03/12 01:37:37;;;;;;;;;;;;;;;18.21;44.97;100547.31;4960086;29;1057;-44
2024/03/12 01:40:19;;;;;;;;;;;;;;;18.81;42.72;100548.56;4959520;29;1160;-42
2024/03/12 01:42:54;;;;;;;;;;;;;;;15.87;50.47;100547.50;4959601;29;1199;-42
2024/03/12 01:45:21;;;;;;;;;;;;;;;18.90;43.33;100563.75;4947182;29;1197;-43
2024/03/12 01:47:50;;;;;;;;;;;;;;;15.36;50.62;100571.41;4959645;29;1117;-44
2024/03/12 01:50:18;;;;;;;;;;;;;;;18.30;44.79;100567.00;4959492;29;1986;-41
2024/03/12 01:52:44;;;;;;;;;;;;;;;18.09;44.04;100573.09;4959662;29;1061;-41
2024/03/12 01:55:11;;;;;;;;;;;;;;;16.60;49.16;100567.84;4959090;29;1039;-39
2024/03/12 01:57:39;;;;;;;;;;;;;;;19.17;42.49;100558.84;4959652;29;1010;-42
2024/03/12 02:00:10;;;;;;;;;;;;;;;15.63;49.74;100530.59;4959357;29;1154;-40
2024/03/12 02:02:37;;;;;;;;;;;;;;;18.38;44.39;100532.59;4958804;28;1029;-44
2024/03/12 02:05:03;;;;;;;;;;;;;;;18.41;43.43;100524.34;4959418;29;1097;-43
2024/03/12 02:07:28;;;;;;;;;;;;;;;16.53;49.18;100519.66;4959034;29;889;-41
2024/03/12 02:09:54;;;;;;;;;;;;;;;19.19;42.47;100525.75;4946527;29;1968;-43
2024/03/12 02:12:19;;;;;;;;;;;;;;;16.03;48.58;100518.06;4950700;29;1125;-41
2024/03/12 02:14:45;;;;;;;;;;;;;;;17.74;46.16;100514.69;4954703;29;1074;-43
2024/03/12 02:17:11;;;;;;;;;;;;;;;19.23;41.90;100512.13;4959290;29;1108;-44
2024/03/12 02:19:37;;;;;;;;;;;;;;;15.83;50.92;100515.03;4958442;29;918;-42
2024/03/12 02:22:04;;;;;;;;;;;;;;;18.95;43.06;100518.06;4959261;29;1118;-40
2024/03/12 02:24:29;;;;;;;;;;;;;;;16.47;47.97;100515.66;4958944;29;1424;-40
2024/03/12 02:26:55;;;;;;;;;;;;;;;17.80;45.91;100505.34;4959229;29;1157;-39
2024/03/12 02:29:20;;;;;;;;;;;;;;;19.55;41.68;100503.91;4958876;29;1976;-42
2024/03/12 02:31:46;;;;;;;;;;;;;;;15.43;51.52;100501.06;4958118;29;859;-44
2024/03/12 02:34:11;;;;;;;;;;;;;;;18.83;43.31;100510.13;4958619;29;1049;-41
2024/03/12 02:36:37;;;;;;;;;;;;;;;17.09;46.09;100515.41;4950991;29;1110;-39
2024/03/12 02:39:03;;;;;;;;;;;;;;;17.17;47.66;100516.59;4954454;29;1134;-42
2024/03/12 02:41:31;;;;;;;;;;;;;;;19.38;42.14;100510.78;4958390;29;1069;-44
2024/03/12 02:43:56;;;;;;;;;;;;;;;15.30;51.24;100500.25;4955302;29;956;-42
2024/03/12 02:46:22;;;;;;;;;;;;;;;18.69;43.78;100500.66;4958678;28;1100;-41
2024/03/12 02:48:51;;;;;;;;;;;;;;;17.85;44.55;100499.66;4946331;29;1915;-43
2024/03/12 02:51:17;;;;;;;;;;;;;;;17.20;47.25;100511.03;4958221;29;1077;-44
2024/03/12 02:53:42;;;;;;;;;;;;;;;19.44;41.78;100507.56;4958119;29;1116;-42
2024/03/12 02:56:08;;;;;;;;;;;;;;;15.62;49.52;100506.84;4958369;29;892;-43
2024/03/12 02:58:33;;;;;;;;;;;;;;;18.53;44.08;100508.28;4945967;29;1205;-43
2024/03/12 03:00:59;;;;;;;;;;;;;;;18.63;42.77;100505.69;4949675;29;1148;-41
2024/03/12 03:03:24;;;;;;;;;;;;;;;16.24;49.73;100510.31;4954072;28;1043;-43
2024/03/12 03:05:50;;;;;;;;;;;;;;;19.17;42.61;100525.03;4958493;29;1022;-43
2024/03/12 03:08:17;;;;;;;;;;;;;;;16.07;48.34;100505.41;4952006;29;1973;-46
2024/03/12 03:10:42;;;;;;;;;;;;;;;18.23;44.88;100505.44;4947806;29;1034;-46
2024/03/12 03:13:08;;;;;;;;;;;;;;;19.42;41.58;100509.53;4958279;29;1154;-41
2024/03/12 03:15:33;;;;;;;;;;;;;;;16.01;50.67;100509.38;4958459;28;1148;-46
2024/03/12 03:18:01;;;;;;;;;;;;;;;19.13;42.83;100512.09;4958150;29;1086;-43
2024/03/12 03:20:26;;;;;;;;;;;;;;;16.62;47.34;100488.88;4958326;29;1101;-43
2024/03/12 03:22:52;;;;;;;;;;;;;;;17.86;45.96;100488.88;4944982;29;1140;-43
2024/03/12 03:25:18;;;;;;;;;;;;;;;19.73;41.24;100491.72;4958059;29;1120;-46
2024/03/12 03:27:43;;;;;;;;;;;;;;;15.48;50.22;100482.19;4958042;29;1065;-44
2024/03/12 03:30:18;;;;;;;;;;;;;;;18.42;44.56;100480.75;4956874;29;1980;-43
2024/03/12 03:32:44;;;;;;;;;;;;;;;16.85;46.90;100465.84;4955656;29;1173;-44
2024/03/12 03:35:10;;;;;;;;;;;;;;;17.52;46.62;100462.38;4958497;29;1061;-46
2024/03/12 03:37:36;;;;;;;;;;;;;;;19.54;41.70;100453.38;4958261;29;1173;-45
2024/03/12 03:40:10;;;;;;;;;;;;;;;15.28;50.84;100455.31;4958253;29;1129;-40
2024/03/12 03:42:39;;;;;;;;;;;;;;;18.56;44.06;100465.41;4954522;29;1018;-41
2024/03/12 03:45:04;;;;;;;;;;;;;;;16.95;46.52;100460.63;4950077;29;1088;-42
2024/03/12 03:47:34;;;;;;;;;;;;;;;16.95;48.11;100478.41;4958090;29;1161;-42
2024/03/12 03:50:03;;;;;;;;;;;;;;;19.34;42.27;100490.69;4958064;29;1985;-45
2024/03/12 03:52:28;;;;;;;;;;;;;;;15.19;51.84;100501.03;4951853;29;1124;-39
2024/03/12 03:54:54;;;;;;;;;;;;;;;18.66;43.95;100498.28;4948908;29;2929;-45
2024/03/12 03:57:19;;;;;;;;;;;;;;;17.48;45.39;100475.06;4957626;29;1968;-40
2024/03/12 03:59:46;;;;;;;;;;;;;;;17.08;47.86;100460.50;4944679;29;2090;-40
2024/03/12 04:02:12;;;;;;;;;;;;;;;19.37;41.98;100477.06;4956228;29;1858;-45
2024/03/12 04:04:38;;;;;;;;;;;;;;;15.54;50.12;100487.06;4957666;29;1782;-40
2024/03/12 04:07:04;;;;;;;;;;;;;;;18.54;44.22;100497.50;4946355;29;2012;-42
2024/03/12 04:09:30;;;;;;;;;;;;;;;18.44;43.39;100469.97;4946175;29;1911;-41
2024/03/12 04:11:56;;;;;;;;;;;;;;;16.31;49.82;100468.22;4957405;29;1053;-43
2024/03/12 04:14:23;;;;;;;;;;;;;;;19.16;42.74;100462.03;4957148;29;1161;-39
2024/03/12 04:16:48;;;;;;;;;;;;;;;15.86;48.90;100450.31;4952601;29;1061;-41
2024/03/12 04:19:14;;;;;;;;;;;;;;;18.26;45.00;100443.09;4949481;29;1004;-39
2024/03/12 04:21:40;;;;;;;;;;;;;;;19.24;41.89;100433.81;4944604;29;1200;-42
2024/03/12 04:24:06;;;;;;;;;;;;;;;16.02;50.52;100442.06;4957363;29;1062;-39
2024/03/12 04:26:31;;;;;;;;;;;;;;;19.14;42.77;100433.78;4959199;28;1033;-41
2024/03/12 04:28:57;;;;;;;;;;;;;;;16.60;47.58;100443.03;4961124;29;1907;-41
2024/03/12 04:31:23;;;;;;;;;;;;;;;17.94;45.84;100444.81;4958932;29;1141;-42
2024/03/12 04:33:52;;;;;;;;;;;;;;;19.70;41.24;100442.97;4961010;29;1064;-43
2024/03/12 04:36:19;;;;;;;;;;;;;;;15.42;51.63;100440.22;4948335;29;1117;-39
2024/03/12 04:38:45;;;;;;;;;;;;;;;18.93;43.12;100448.03;4960935;29;2675;-42
2024/03/12 04:41:10;;;;;;;;;;;;;;;17.08;46.10;100433.91;4947997;29;1153;-42
2024/03/12 04:43:36;;;;;;;;;;;;;;;17.45;47.08;100438.09;4956555;29;1122;-46
2024/03/12 04:46:02;;;;;;;;;;;;;;;19.63;41.82;100433.88;4959990;29;1097;-47
2024/03/12 04:48:27;;;;;;;;;;;;;;;15.28;50.61;100434.13;4953899;29;1940;-43
2024/03/12 04:50:53;;;;;;;;;;;;;;;18.44;44.71;100435.34;4948056;29;1243;-45
2024/03/12 04:53:18;;;;;;;;;;;;;;;17.54;45.39;100439.16;4960685;29;1025;-44
2024/03/12 04:55:45;;;;;;;;;;;;;;;16.92;48.60;100439.63;4952213;29;1132;-44
2024/03/12 04:58:11;;;;;;;;;;;;;;;19.42;42.28;100432.16;4952942;29;1109;-42
2024/03/12 05:00:37;;;;;;;;;;;;;;;15.59;50.13;100443.44;4960796;29;1124;-44
2024/03/12 05:03:02;;;;;;;;;;;;;;;17.87;46.03;100453.31;4960225;29;1002;-43
2024/03/12 05:05:28;;;;;;;;;;;;;;;18.28;44.05;100462.44;4960392;29;1149;-42
2024/03/12 05:07:53;;;;;;;;;;;;;;;16.34;49.97;100446.72;4959805;29;2536;-47
2024/03/12 05:10:22;;;;;;;;;;;;;;;19.14;42.90;100441.78;4960065;29;1906;-44
2024/03/12 05:12:50;;;;;;;;;;;;;;;19.08;42.43;100445.84;4960333;29;1209;-43
2024/03/12 05:15:17;;;;;;;;;;;;;;;18.33;44.18;100436.28;4957301;29;1060;-44
2024/03/12 05:17:45;;;;;;;;;;;;;;;17.98;44.92;100432.94;4952754;29;1093;-42
2024/03/12 05:20:14;;;;;;;;;;;;;;;17.69;45.64;100430.88;4950851;29;927;-46
2024/03/12 05:22:39;;;;;;;;;;;;;;;17.43;46.03;100437.41;4959917;29;1002;-43
2024/03/12 05:25:09;;;;;;;;;;;;;;;17.25;46.38;100431.75;4953454;29;1184;-41
2024/03/12 05:27:38;;;;;;;;;;;;;;;17.11;46.49;100424.91;4955090;29;1010;-41
2024/03/12 05:30:10;;;;;;;;;;;;;;;16.97;47.00;100423.31;4960009;29;1910;-44
2024/03/12 05:32:43;;;;;;;;;;;;;;;16.84;47.21;100410.16;4959746;29;1019;-45
2024/03/12 05:35:17;;;;;;;;;;;;;;;16.61;47.67;100408.38;4960239;29;1037;-47
2024/03/12 05:40:43;;;;;;;;;;;;;;;16.43;48.17;100400.06;4960087;29;1037;-45
2024/03/12 05:48:39;;;;;;;;;;;;;;;16.02;48.74;100400.47;4959591;29;1981;-45
2024/03/12 05:51:05;;;;;;;;;;;;;;;15.93;49.25;100403.81;4959723;29;1140;-44
2024/03/12 05:53:32;;;;;;;;;;;;;;;15.88;49.10;100422.69;4959392;29;1229;-41
2024/03/12 05:55:58;;;;;;;;;;;;;;;15.68;49.15;100426.88;4958515;29;1007;-46
2024/03/12 05:58:25;;;;;;;;;;;;;;;15.66;49.50;100426.13;4946629;29;1173;-42
2024/03/12 06:00:50;;;;;;;;;;;;;;;15.57;49.57;100437.41;4959847;29;970;-43
2024/03/12 06:03:16;;;;;;;;;;;;;;;15.53;49.54;100426.19;4958998;29;1038;-42
2024/03/12 06:05:43;;;;;;;;;;;;;;;17.03;46.56;100436.13;4952182;29;1173;-46
2024/03/12 06:08:09;;;;;;;;;;;;;;;16.91;46.53;100424.66;4953843;29;1917;-42
2024/03/12 06:10:34;;;;;;;;;;;;;;;16.26;48.47;100428.75;4959030;29;1997;-43
2024/03/12 06:13:00;;;;;;;;;;;;;;;16.01;48.84;100411.19;4959601;29;1078;-48
2024/03/12 06:15:25;;;;;;;;;;;;;;;15.78;49.12;100424.38;4959062;29;1081;-47
2024/03/12 06:17:51;;;;;;;;;;;;;;;15.70;49.14;100421.44;4959638;29;1173;-45
2024/03/12 06:20:16;;;;;;;;;;;;;;;15.60;49.48;100426.59;4959407;29;899;-42
2024/03/12 06:22:45;;;;;;;;;;;;;;;15.51;49.68;100428.09;4959296;29;1038;-41
2024/03/12 06:25:10;;;;;;;;;;;;;;;15.96;49.29;100423.94;4959145;29;1169;-41
2024/03/12 06:27:39;;;;;;;;;;;;;;;17.34;45.78;100424.84;4958834;29;1125;-44
2024/03/12 06:30:05;;;;;;;;;;;;;;;16.58;47.08;100429.84;4958782;29;1990;-43
2024/03/12 06:32:34;;;;;;;;;;;;;;;16.11;48.59;100420.16;4958611;29;1137;-41
2024/03/12 06:35:00;;;;;;;;;;;;;;;15.85;49.19;100419.44;4958328;29;1265;-43
2024/03/12 06:37:27;;;;;;;;;;;;;;;15.65;49.42;100425.28;4956960;29;1446;-41
2024/03/12 06:39:55;;;;;;;;;;;;;;;15.55;49.86;100418.94;4948263;29;1014;-42
2024/03/12 06:42:30;;;;;;;;;;;;;;;15.76;49.66;100427.13;4946215;29;1200;-41
2024/03/12 06:44:56;;;;;;;;;;;;;;;17.28;45.90;100433.31;4958555;29;842;-48
2024/03/12 06:47:24;;;;;;;;;;;;;;;16.71;46.95;100435.06;4958297;29;1121;-45
2024/03/12 06:49:50;;;;;;;;;;;;;;;16.14;48.60;100427.88;4958698;28;1906;-40
2024/03/12 06:52:15;;;;;;;;;;;;;;;15.85;48.94;100427.41;4958649;29;929;-41
2024/03/12 06:54:44;;;;;;;;;;;;;;;15.79;49.19;100413.66;4958318;29;1172;-43
2024/03/12 06:57:12;;;;;;;;;;;;;;;15.64;49.79;100418.28;4953671;29;1189;-46
2024/03/12 06:59:37;;;;;;;;;;;;;;;17.15;46.25;100417.53;4958550;29;1185;-41
2024/03/12 07:02:03;;;;;;;;;;;;;;;16.80;46.49;100427.34;4957218;29;1122;-40
2024/03/12 07:04:34;;;;;;;;;;;;;;;16.26;48.21;100423.44;4957919;29;1379;-42
2024/03/12 07:07:05;;;;;;;;;;;;;;;15.97;48.87;100426.47;4957732;28;1068;-43
2024/03/12 07:09:35;;;;;;;;;;;;;;;15.70;49.13;100413.50;4957745;29;1973;-40
2024/03/12 07:12:05;;;;;;;;;;;;;;;15.64;49.63;100406.81;4958520;29;1025;-41
2024/03/12 07:14:39;;;;;;;;;;;;;;;17.11;46.42;100393.88;4957872;29;1145;-41
2024/03/12 07:17:07;;;;;;;;;;;;;;;17.02;46.11;100386.59;4958117;29;1029;-42
2024/03/12 07:19:33;;;;;;;;;;;;;;;16.32;47.92;100381.44;4957979;29;1117;-45
2024/03/12 07:21:59;;;;;;;;;;;;;;;15.98;48.78;100374.25;4954269;29;889;-43
2024/03/12 07:24:25;;;;;;;;;;;;;;;15.78;48.96;100379.28;4956564;29;1159;-43
2024/03/12 07:26:50;;;;;;;;;;;;;;;15.62;49.53;100364.53;4958453;29;1074;-42
2024/03/12 07:29:16;;;;;;;;;;;;;;;15.55;49.85;100361.47;4958690;29;1977;-40
2024/03/12 07:31:43;;;;;;;;;;;;;;;17.09;46.43;100374.53;4957932;29;1080;-40
2024/03/12 07:34:09;;;;;;;;;;;;;;;17.46;45.08;100383.13;4958240;29;910;-43
2024/03/12 07:36:34;;;;;;;;;;;;;;;16.55;47.19;100384.13;4958232;29;1263;-41
2024/03/12 07:39:08;;;;;;;;;;;;;;;16.11;48.17;100377.69;4958085;29;1169;-40
2024/03/12 07:41:34;;;;;;;;;;;;;;;15.93;48.76;100365.81;4957482;29;1124;-41
2024/03/12 07:44:00;;;;;;;;;;;;;;;15.72;49.31;100366.47;4957861;29;1135;-46
2024/03/12 07:46:25;;;;;;;;;;;;;;;15.63;49.89;100355.59;4956289;29;898;-44
2024/03/12 07:48:52;;;;;;;;;;;;;;;17.11;46.33;100361.97;4957911;29;1907;-43
2024/03/12 07:51:18;;;;;;;;;;;;;;;17.06;46.05;100356.16;4956393;29;1105;-44
2024/03/12 07:53:44;;;;;;;;;;;;;;;16.34;47.80;100358.28;4957717;29;1333;-44
2024/03/12 07:56:11;;;;;;;;;;;;;;;16.03;48.49;100359.69;4957428;29;1214;-41
2024/03/12 07:58:37;;;;;;;;;;;;;;;15.82;49.31;100363.97;4957535;29;1229;-44
2024/03/12 08:01:03;;;;;;;;;;;;;;;15.62;49.72;100369.81;4958419;28;1244;-42
2024/03/12 08:03:29;;;;;;;;;;;;;;;16.21;48.49;100363.72;4960948;29;1128;-41
2024/03/12 08:05:54;;;;;;;;;;;;;;;17.55;45.17;100374.34;4961476;29;1066;-39
2024/03/12 08:08:20;;;;;;;;;;;;;;;17.01;46.07;100372.47;4960575;29;1919;-41
2024/03/12 08:10:45;;;;;;;;;;;;;;;16.39;47.91;100382.66;4958873;29;1415;-44
2024/03/12 08:13:11;;;;;;;;;;;;;;;16.13;48.42;100377.59;4959789;29;1106;-41
2024/03/12 08:15:40;;;;;;;;;;;;;;;15.81;49.35;100387.00;4960709;28;1074;-44
2024/03/12 08:18:06;;;;;;;;;;;;;;;15.65;49.46;100384.63;4960796;29;1280;-41
2024/03/12 08:20:34;;;;;;;;;;;;;;;17.10;46.50;100394.00;4959321;29;1201;-41
2024/03/12 08:22:59;;;;;;;;;;;;;;;17.13;45.91;100397.22;4960821;29;1228;-44
2024/03/12 08:25:25;;;;;;;;;;;;;;;16.40;47.94;100401.13;4957682;29;1233;-43
2024/03/12 08:27:51;;;;;;;;;;;;;;;16.02;48.59;100397.81;4960209;29;1538;-41
2024/03/12 08:30:18;;;;;;;;;;;;;;;15.78;49.13;100398.69;4960008;29;2026;-40
2024/03/12 08:32:44;;;;;;;;;;;;;;;15.84;49.48;100396.53;4959185;28;1161;-42
2024/03/12 08:35:10;;;;;;;;;;;;;;;17.34;45.81;100409.75;4961354;29;1045;-45
2024/03/12 08:37:36;;;;;;;;;;;;;;;16.74;46.79;100413.56;4960848;29;1397;-43
2024/03/12 08:40:01;;;;;;;;;;;;;;;16.20;48.32;100402.66;4961387;29;1114;-44
2024/03/12 08:42:27;;;;;;;;;;;;;;;15.98;49.01;100406.97;4960699;29;1340;-42
2024/03/12 08:44:54;;;;;;;;;;;;;;;15.74;49.47;100388.41;4959206;29;1317;-44
2024/03/12 08:47:20;;;;;;;;;;;;;;;15.60;49.27;100369.09;4960190;29;1211;-42
2024/03/12 08:49:45;;;;;;;;;;;;;;;16.60;47.56;100376.66;4960757;29;1973;-45
2024/03/12 08:52:11;;;;;;;;;;;;;;;17.71;44.94;100373.94;4960790;29;1171;-44
2024/03/12 08:54:37;;;;;;;;;;;;;;;16.73;46.91;100365.88;4960218;29;1241;-41
2024/03/12 08:57:02;;;;;;;;;;;;;;;16.24;48.08;100360.81;4959785;29;1279;-46
2024/03/12 08:59:28;;;;;;;;;;;;;;;15.97;48.62;100354.84;4960430;29;1113;-44
2024/03/12 09:01:57;;;;;;;;;;;;;;;15.73;49.19;100369.00;4960364;29;1307;-46
2024/03/12 09:04:30;;;;;;;;;;;;;;;15.62;49.63;100351.25;4959403;29;1280;-42
2024/03/12 09:06:57;;;;;;;;;;;;;;;17.17;46.31;100362.41;4960378;29;1026;-43
2024/03/12 09:09:23;;;;;;;;;;;;;;;17.10;46.25;100356.78;4958644;29;1898;-44
2024/03/12 09:11:49;;;;;;;;;;;;;;;16.32;48.09;100353.09;4959285;28;1010;-44
2024/03/12 09:14:14;;;;;;;;;;;;;;;16.02;48.86;100334.13;4948008;29;1192;-42
2024/03/12 09:16:41;;;;;;;;;;;;;;;15.88;49.05;100335.16;4960105;29;1280;-43
2024/03/12 09:19:08;;;;;;;;;;;;;;;15.69;49.76;100317.16;4960108;29;1145;-39
2024/03/12 09:21:34;;;;;;;;;;;;;;;16.15;49.04;100327.88;4954778;29;1283;-42
2024/03/12 09:24:00;;;;;;;;;;;;;;;17.49;45.57;100319.88;4957603;29;1618;-40
2024/03/12 09:26:26;;;;;;;;;;;;;;;17.01;46.35;100302.53;4950143;29;1355;-44
2024/03/12 09:28:51;;;;;;;;;;;;;;;16.35;47.98;100290.97;4957970;29;1986;-41
2024/03/12 09:31:18;;;;;;;;;;;;;;;16.08;48.83;100310.75;4959337;29;1347;-41
2024/03/12 09:33:44;;;;;;;;;;;;;;;15.83;49.57;100345.28;4958249;29;1312;-42
2024/03/12 09:36:10;;;;;;;;;;;;;;;15.66;49.50;100360.66;4959546;29;1443;-40
2024/03/12 09:38:36;;;;;;;;;;;;;;;16.67;47.71;100358.38;4960040;29;1522;-39
2024/03/12 09:41:03;;;;;;;;;;;;;;;17.72;45.10;100364.13;4958426;29;1208;-41
2024/03/12 09:43:29;;;;;;;;;;;;;;;16.70;47.48;100358.16;4941700;29;1114;-42
2024/03/12 09:45:55;;;;;;;;;;;;;;;16.14;48.46;100353.56;4935015;29;1351;-41
2024/03/12 09:48:21;;;;;;;;;;;;;;;15.99;49.20;100352.94;4959869;29;1914;-44
2024/03/12 09:50:49;;;;;;;;;;;;;;;15.81;49.66;100354.31;4942557;29;1398;-41
2024/03/12 09:53:14;;;;;;;;;;;;;;;15.62;49.62;100356.56;4959732;29;1110;-43
2024/03/12 09:55:40;;;;;;;;;;;;;;;16.05;49.08;100354.28;4959207;29;1291;-42
2024/03/12 09:58:09;;;;;;;;;;;;;;;17.43;45.88;100343.47;4953631;29;1138;-41
2024/03/12 10:00:35;;;;;;;;;;;;;;;16.95;46.81;100338.41;4958993;29;1093;-41
2024/03/12 10:03:00;;;;;;;;;;;;;;;16.23;48.26;100317.50;4959273;29;1065;-44
2024/03/12 10:05:27;;;;;;;;;;;;;;;16.00;48.74;100321.94;4958805;29;1042;-43
2024/03/12 10:08:08;;;;;;;;;;;;;;;15.78;49.66;100337.69;4957361;29;1343;-43
2024/03/12 10:10:36;;;;;;;;;;;;;;;16.88;48.13;100329.28;4958391;29;1907;-46
2024/03/12 10:13:03;;;;;;;;;;;;;;;17.68;45.46;100326.31;4955915;29;1370;-45
2024/03/12 10:15:29;;;;;;;;;;;;;;;17.23;46.74;100316.75;4959058;29;1355;-40
2024/03/12 10:17:59;;;;;;;;;;;;;;;16.44;48.15;100315.91;4957936;29;1161;-44
2024/03/12 10:20:24;;;;;;;;;;;;;;;16.08;48.94;100321.38;4958799;29;1225;-39
2024/03/12 10:23:02;;;;;;;;;;;;;;;15.84;49.82;100327.56;4958740;29;1033;-42
2024/03/12 10:25:30;;;;;;;;;;;;;;;15.65;49.83;100327.16;4957757;29;1253;-42
2024/03/12 10:27:55;;;;;;;;;;;;;;;15.53;50.11;100334.22;4956296;29;1123;-43
2024/03/12 10:30:28;;;;;;;;;;;;;;;17.01;47.33;100334.41;4959009;29;1914;-44
2024/03/12 10:32:55;;;;;;;;;;;;;;;17.38;46.02;100323.44;4958780;29;1381;-44
2024/03/12 10:35:21;;;;;;;;;;;;;;;16.48;48.10;100315.56;4958430;29;1006;-41
2024/03/12 10:37:50;;;;;;;;;;;;;;;16.12;48.89;100326.31;4958207;29;1300;-40
2024/03/12 10:40:15;;;;;;;;;;;;;;;15.85;49.64;100310.69;4958707;29;1160;-42
2024/03/12 10:42:57;;;;;;;;;;;;;;;15.97;49.29;100306.22;4958539;29;1136;-42
2024/03/12 10:45:24;;;;;;;;;;;;;;;16.18;49.31;100289.66;4958564;29;1403;-43
2024/03/12 10:47:49;;;;;;;;;;;;;;;17.52;45.87;100262.91;4955751;29;942;-42
2024/03/12 10:50:16;;;;;;;;;;;;;;;16.75;47.53;100250.56;4958493;29;1912;-46
2024/03/12 10:52:45;;;;;;;;;;;;;;;16.27;48.33;100257.91;4955509;29;1025;-42
2024/03/12 10:55:20;;;;;;;;;;;;;;;15.95;49.55;100271.03;4955291;29;1340;-44
2024/03/12 10:57:49;;;;;;;;;;;;;;;15.69;50.06;100287.16;4940367;29;1029;-42
2024/03/12 11:00:20;;;;;;;;;;;;;;;16.95;47.43;100295.91;4938345;29;1266;-47
2024/03/12 11:02:49;;;;;;;;;;;;;;;17.39;45.84;100305.66;4957673;29;1209;-42
2024/03/12 11:05:21;;;;;;;;;;;;;;;16.45;48.25;100312.31;4944347;29;1370;-44
2024/03/12 11:07:50;;;;;;;;;;;;;;;16.04;49.21;100299.53;4957956;29;1584;-43
2024/03/12 11:10:16;;;;;;;;;;;;;;;15.82;49.86;100285.25;4957856;29;1964;-42
2024/03/12 11:12:44;;;;;;;;;;;;;;;15.64;50.08;100288.38;4958499;29;1042;-40
2024/03/12 11:15:09;;;;;;;;;;;;;;;16.26;48.94;100289.88;4952352;29;1167;-45
2024/03/12 11:17:37;;;;;;;;;;;;;;;17.58;45.71;100285.50;4952060;29;1173;-42
2024/03/12 11:20:05;;;;;;;;;;;;;;;16.80;47.33;100278.56;4949854;29;1163;-44
2024/03/12 11:22:32;;;;;;;;;;;;;;;16.16;48.97;100253.44;4956696;29;1584;-47
2024/03/12 11:24:57;;;;;;;;;;;;;;;15.91;49.71;100242.06;4958093;28;1050;-43
2024/03/12 11:27:26;;;;;;;;;;;;;;;15.79;49.63;100265.13;4958297;29;1121;-47
2024/03/12 11:30:04;;;;;;;;;;;;;;;15.57;50.18;100268.56;4957750;29;1903;-43
2024/03/12 11:32:32;;;;;;;;;;;;;;;17.05;47.42;100269.41;4957415;29;1375;-43
2024/03/12 11:35:00;;;;;;;;;;;;;;;17.47;45.95;100262.47;4957653;28;1073;-44
2024/03/12 11:37:26;;;;;;;;;;;;;;;16.51;48.30;100262.22;4955557;29;1138;-46
2024/03/12 11:40:10;;;;;;;;;;;;;;;16.06;49.14;100247.19;4960142;29;1133;-42
2024/03/12 11:42:35;;;;;;;;;;;;;;;15.85;49.64;100242.56;4959498;29;1308;-44
2024/03/12 11:45:01;;;;;;;;;;;;;;;15.73;49.93;100248.84;4962193;29;955;-41
2024/03/12 11:47:31;;;;;;;;;;;;;;;15.53;50.63;100237.97;4953542;29;1146;-45
2024/03/12 11:49:56;;;;;;;;;;;;;;;16.99;47.39;100220.28;4953634;29;1903;-45
2024/03/12 11:52:22;;;;;;;;;;;;;;;17.45;46.00;100203.28;4961659;29;946;-41
2024/03/12 11:54:48;;;;;;;;;;;;;;;16.51;48.16;100214.44;4961497;29;1240;-40
2024/03/12 11:57:26;;;;;;;;;;;;;;;16.07;49.27;100211.72;4948828;29;1173;-44
2024/03/12 11:59:51;;;;;;;;;;;;;;;15.84;49.68;100219.66;4958942;29;915;-44
2024/03/12 12:02:20;;;;;;;;;;;;;;;15.69;49.90;100221.72;4961763;29;1145;-45
2024/03/12 12:04:52;;;;;;;;;;;;;;;15.64;50.43;100226.53;4960362;29;1081;-47
2024/03/12 12:07:21;;;;;;;;;;;;;;;17.05;47.31;100220.75;4959017;29;1393;-47
2024/03/12 12:09:47;;;;;;;;;;;;;;;17.25;46.44;100213.75;4960556;29;1986;-41
2024/03/12 12:12:14;;;;;;;;;;;;;;;16.46;48.57;100213.97;4960816;29;1027;-42
2024/03/12 12:14:43;;;;;;;;;;;;;;;16.03;49.69;100212.94;4959988;29;1210;-43
2024/03/12 12:17:12;;;;;;;;;;;;;;;16.02;49.67;100206.78;4959679;29;1017;-42
2024/03/12 12:19:39;;;;;;;;;;;;;;;15.69;50.29;100218.19;4960923;29;1132;-47
2024/03/12 12:22:07;;;;;;;;;;;;;;;15.99;50.11;100222.09;4944217;29;1117;-45
2024/03/12 12:24:33;;;;;;;;;;;;;;;17.46;46.50;100215.59;4959781;29;1082;-44
2024/03/12 12:26:58;;;;;;;;;;;;;;;16.77;47.71;100216.75;4956622;29;1367;-42
2024/03/12 12:29:24;;;;;;;;;;;;;;;16.22;49.27;100219.41;4958864;29;1914;-47
2024/03/12 12:31:51;;;;;;;;;;;;;;;15.97;49.73;100208.06;4943245;29;1098;-43
2024/03/12 12:34:17;;;;;;;;;;;;;;;15.78;50.26;100213.03;4942553;29;1281;-43
2024/03/12 12:36:43;;;;;;;;;;;;;;;16.28;49.54;100218.94;4943317;29;1218;-42
2024/03/12 12:39:09;;;;;;;;;;;;;;;17.58;46.32;100211.84;4943604;29;1265;-48
2024/03/12 12:41:35;;;;;;;;;;;;;;;16.73;47.87;100193.22;4960554;29;1277;-46
2024/03/12 12:44:10;;;;;;;;;;;;;;;16.13;49.19;100186.53;4960676;29;1163;-43
2024/03/12 12:46:36;;;;;;;;;;;;;;;15.90;50.03;100179.38;4960096;28;1165;-44
2024/03/12 12:49:02;;;;;;;;;;;;;;;15.73;50.53;100182.53;4961108;29;1911;-47
2024/03/12 12:51:27;;;;;;;;;;;;;;;16.53;48.88;100182.44;4943404;29;1191;-43
2024/03/12 12:54:01;;;;;;;;;;;;;;;17.59;46.12;100180.78;4939124;29;1138;-42
2024/03/12 12:56:26;;;;;;;;;;;;;;;16.62;48.23;100175.50;4938725;29;1043;-47